createdAt,value
2022-10-04T00:00:41.258Z,5.35
2022-10-04T00:03:19.040Z,4.53
2022-10-04T00:05:50.612Z,4.63
2022-10-04T00:08:43.591Z,5.40
2022-10-04T00:11:22.472Z,3.95
2022-10-04T00:13:56.883Z,4.03
2022-10-04T00:16:31.642Z,4.07
2022-10-04T00:19:19.349Z,5.22
2022-10-04T00:21:56.183Z,5.13
2022-10-04T00:24:24.923Z,4.88
2022-10-04T00:26:51.434Z,5.38
2022-10-04T00:29:27.084Z,4.83
2022-10-04T00:32:25.381Z,5.25
2022-10-04T00:34:53.248Z,5.75
2022-10-04T00:37:22.060Z,4.90
2022-10-04T00:40:12.087Z,5.82
2022-10-04T00:43:01.953Z,5.90
2022-10-04T00:45:34.514Z,6.10
2022-10-04T00:48:09.503Z,5.97
2022-10-04T00:51:00.218Z,6.10
2022-10-04T00:53:45.618Z,7.10
2022-10-04T00:56:19.280Z,7.03
2022-10-04T00:58:59.242Z,6.85
2022-10-04T01:01:28.700Z,6.97
2022-10-04T01:03:59.524Z,8.27
2022-10-04T01:06:26.939Z,6.65
2022-10-04T01:08:56.304Z,6.43
2022-10-04T01:11:30.477Z,5.95
2022-10-04T01:14:08.677Z,7.25
2022-10-04T01:16:37.027Z,5.82
2022-10-04T01:19:21.819Z,6.75
2022-10-04T01:22:04.011Z,6.77
2022-10-04T01:24:35.740Z,5.95
2022-10-04T01:27:02.844Z,5.53
2022-10-04T01:29:31.373Z,5.65
2022-10-04T01:32:01.704Z,5.90
2022-10-04T01:34:30.259Z,5.77
2022-10-04T01:36:59.855Z,6.65
2022-10-04T01:39:28.579Z,5.97
2022-10-04T01:41:58.271Z,8.02
2022-10-04T01:44:39.583Z,6.57
2022-10-04T01:47:14.076Z,7.17
2022-10-04T01:49:43.943Z,6.93
2022-10-04T01:52:16.409Z,7.07
2022-10-04T01:55:00.425Z,7.00
2022-10-04T01:58:02.881Z,7.43
2022-10-04T02:00:30.774Z,6.87
2022-10-04T02:03:35.635Z,7.20
2022-10-04T02:06:05.919Z,7.45
2022-10-04T02:08:39.843Z,7.28
2022-10-04T02:11:07.391Z,7.47
2022-10-04T02:13:38.443Z,7.50
2022-10-04T02:16:10.128Z,8.38
2022-10-04T02:18:39.074Z,8.77
2022-10-04T02:21:07.403Z,8.13
2022-10-04T02:23:37.036Z,8.82
2022-10-04T02:26:08.214Z,8.50
2022-10-04T02:28:36.404Z,8.55
2022-10-04T02:31:23.103Z,8.43
2022-10-04T02:33:53.051Z,7.78
2022-10-04T02:36:25.796Z,7.53
2022-10-04T02:39:38.849Z,7.43
2022-10-04T02:42:26.450Z,6.47
2022-10-04T02:45:23.711Z,7.35
2022-10-04T02:48:05.330Z,6.28
2022-10-04T02:50:45.549Z,7.32
2022-10-04T02:53:33.373Z,7.07
2022-10-04T02:56:02.774Z,7.97
2022-10-04T02:58:30.529Z,7.85
2022-10-04T03:01:00.148Z,8.02
2022-10-04T03:03:31.505Z,7.97
2022-10-04T03:06:08.953Z,7.70
2022-10-04T03:08:59.039Z,7.95
2022-10-04T03:11:30.875Z,8.48
2022-10-04T03:14:00.122Z,8.48
2022-10-04T03:16:27.339Z,8.20
2022-10-04T03:18:57.212Z,8.47
2022-10-04T03:21:25.593Z,7.95
2022-10-04T03:23:53.523Z,8.40
2022-10-04T03:26:29.889Z,8.07
2022-10-04T03:28:58.640Z,8.50
2022-10-04T03:31:27.740Z,8.73
2022-10-04T03:33:56.016Z,8.93
2022-10-04T03:36:24.349Z,9.10
2022-10-04T03:38:55.176Z,8.95
2022-10-04T03:41:24.484Z,8.77
2022-10-04T03:43:53.485Z,9.83
2022-10-04T03:46:22.787Z,9.88
2022-10-04T03:48:55.073Z,9.40
2022-10-04T03:51:26.632Z,9.60
2022-10-04T03:53:59.159Z,10.13
2022-10-04T03:56:32.862Z,9.10
2022-10-04T03:59:02.199Z,8.95
2022-10-04T04:02:01.912Z,9.75
2022-10-04T04:04:53.887Z,9.60
2022-10-04T04:07:30.181Z,10.70
2022-10-04T04:10:16.006Z,9.13
2022-10-04T04:13:07.483Z,10.82
2022-10-04T04:15:34.943Z,10.98
2022-10-04T04:18:10.875Z,10.15
2022-10-04T04:20:39.602Z,10.32
2022-10-04T04:23:23.020Z,9.93
2022-10-04T04:25:54.483Z,9.57
2022-10-04T04:28:21.275Z,10.20
2022-10-04T04:30:50.603Z,10.02
2022-10-04T04:33:43.177Z,10.82
2022-10-04T04:36:14.211Z,11.07
2022-10-04T04:39:00.824Z,10.35
2022-10-04T04:41:31.395Z,11.90
2022-10-04T04:43:58.421Z,10.10
2022-10-04T04:46:27.924Z,10.10
2022-10-04T04:49:04.067Z,10.20
2022-10-04T04:51:32.920Z,11.00
2022-10-04T04:54:02.634Z,11.23
2022-10-04T04:56:30.745Z,9.90
2022-10-04T04:59:01.592Z,10.95
2022-10-04T05:01:33.482Z,10.57
2022-10-04T05:04:12.766Z,9.88
2022-10-04T05:06:44.896Z,12.20
2022-10-04T05:09:30.497Z,11.00
2022-10-04T05:12:21.691Z,11.02
2022-10-04T05:14:54.622Z,10.80
2022-10-04T05:17:25.768Z,10.90
2022-10-04T05:19:58.039Z,11.00
2022-10-04T05:22:26.371Z,10.98
2022-10-04T05:24:56.586Z,10.95
2022-10-04T05:27:39.181Z,10.50
2022-10-04T05:30:18.260Z,10.02
2022-10-04T05:33:09.744Z,10.80
2022-10-04T05:35:57.935Z,10.15
2022-10-04T05:38:49.269Z,10.73
2022-10-04T05:41:33.278Z,10.73
2022-10-04T05:44:01.746Z,9.82
2022-10-04T05:46:35.354Z,10.73
2022-10-04T05:49:18.858Z,9.30
2022-10-04T05:51:53.150Z,10.30
2022-10-04T05:54:26.415Z,10.03
2022-10-04T05:57:17.048Z,9.65
2022-10-04T06:00:04.428Z,10.38
2022-10-04T06:02:51.069Z,10.75
2022-10-04T06:05:36.619Z,10.18
2022-10-04T06:08:15.346Z,10.70
2022-10-04T06:11:02.294Z,10.15
2022-10-04T06:14:03.787Z,9.90
2022-10-04T06:16:56.469Z,10.38
2022-10-04T06:19:43.868Z,9.93
2022-10-04T06:22:22.584Z,11.17
2022-10-04T06:25:09.151Z,10.38
2022-10-04T06:27:48.817Z,9.68
2022-10-04T06:30:17.960Z,10.38
2022-10-04T06:33:25.921Z,10.73
2022-10-04T06:36:28.267Z,11.00
2022-10-04T06:39:04.544Z,11.00
2022-10-04T06:42:00.481Z,11.07
2022-10-04T06:44:36.706Z,10.73
2022-10-04T06:47:08.767Z,11.60
2022-10-04T06:49:52.217Z,10.63
2022-10-04T06:52:34.097Z,9.98
2022-10-04T06:55:19.530Z,10.68
2022-10-04T06:58:12.768Z,10.55
2022-10-04T07:01:18.309Z,10.15
2022-10-04T07:03:57.250Z,9.73
2022-10-04T07:06:29.812Z,10.23
2022-10-04T07:09:02.753Z,10.18
2022-10-04T07:11:42.715Z,10.50
2022-10-04T07:14:18.663Z,10.02
2022-10-04T07:17:05.223Z,9.90
2022-10-04T07:19:45.228Z,9.73
2022-10-04T07:22:38.317Z,10.48
2022-10-04T07:25:34.042Z,9.35
2022-10-04T07:28:35.347Z,9.65
2022-10-04T07:31:34.500Z,8.80
2022-10-04T07:34:09.607Z,8.70
2022-10-04T07:36:53.296Z,8.77
2022-10-04T07:39:29.607Z,7.47
2022-10-04T07:42:14.467Z,8.02
2022-10-04T07:44:44.769Z,7.43
2022-10-04T07:47:22.988Z,7.53
2022-10-04T07:49:50.364Z,7.97
2022-10-04T07:52:32.108Z,6.78
2022-10-04T07:55:29.739Z,7.35
2022-10-04T07:58:18.433Z,6.60
2022-10-04T08:01:04.548Z,6.53
2022-10-04T08:04:08.725Z,7.20
2022-10-04T08:06:53.825Z,7.22
2022-10-04T08:09:25.508Z,7.40
2022-10-04T08:12:29.811Z,6.80
2022-10-04T08:15:10.355Z,7.13
2022-10-04T08:18:05.235Z,7.72
2022-10-04T08:20:36.944Z,7.68
2022-10-04T08:23:33.817Z,7.20
2022-10-04T08:26:34.211Z,7.50
2022-10-04T08:29:43.484Z,7.13
2022-10-04T08:32:10.124Z,6.43
2022-10-04T08:34:53.109Z,6.70
2022-10-04T08:37:38.548Z,7.70
2022-10-04T08:40:24.674Z,6.53
2022-10-04T08:43:13.187Z,7.15
2022-10-04T08:46:05.224Z,7.22
2022-10-04T08:48:45.149Z,6.63
2022-10-04T08:51:51.180Z,6.47
2022-10-04T08:54:27.811Z,7.00
2022-10-04T08:57:16.485Z,6.63
2022-10-04T09:00:01.890Z,6.10
2022-10-04T09:03:06.082Z,6.45
2022-10-04T09:06:10.541Z,6.03
2022-10-04T09:09:01.305Z,6.40
2022-10-04T09:11:58.276Z,5.82
2022-10-04T09:14:43.692Z,5.80
2022-10-04T09:17:24.309Z,6.00
2022-10-04T09:20:36.602Z,6.07
2022-10-04T09:23:06.696Z,5.40
2022-10-04T09:26:06.347Z,5.50
2022-10-04T09:29:04.989Z,5.38
2022-10-04T09:31:55.142Z,5.53
2022-10-04T09:34:41.766Z,5.75
2022-10-04T09:37:13.899Z,5.30
2022-10-04T09:40:22.279Z,5.20
2022-10-04T09:43:07.831Z,5.60
2022-10-04T09:45:56.263Z,6.38
2022-10-04T09:49:05.037Z,6.30
2022-10-04T09:51:31.604Z,5.87
2022-10-04T09:54:46.254Z,5.80
2022-10-04T09:57:30.213Z,6.00
2022-10-04T10:00:25.084Z,5.57
2022-10-04T10:03:26.191Z,6.32
2022-10-04T10:06:13.257Z,5.97
2022-10-04T10:09:04.366Z,6.00
2022-10-04T10:12:01.726Z,5.63
2022-10-04T10:15:00.920Z,5.72
2022-10-04T10:18:05.165Z,6.32
2022-10-04T10:20:50.816Z,5.67
2022-10-04T10:23:51.537Z,5.72
2022-10-04T10:26:40.263Z,5.35
2022-10-04T10:29:24.807Z,5.72
2022-10-04T10:32:20.521Z,5.78
2022-10-04T10:35:09.345Z,5.50
2022-10-04T10:38:05.080Z,5.78
2022-10-04T10:40:50.346Z,5.80
2022-10-04T10:43:41.540Z,5.55
2022-10-04T10:46:32.277Z,5.40
2022-10-04T10:49:31.408Z,5.70
2022-10-04T10:52:26.693Z,5.68
2022-10-04T10:55:07.841Z,5.57
2022-10-04T10:57:58.852Z,5.88
2022-10-04T11:00:52.827Z,6.03
2022-10-04T11:03:44.076Z,5.50
2022-10-04T11:06:25.371Z,5.40
2022-10-04T11:09:05.970Z,4.55
2022-10-04T11:11:56.002Z,5.30
2022-10-04T11:14:34.587Z,4.70
2022-10-04T11:17:39.047Z,5.27
2022-10-04T11:20:24.777Z,4.80
2022-10-04T11:23:34.053Z,4.25
2022-10-04T11:26:28.039Z,4.40
2022-10-04T11:29:31.568Z,4.60
2022-10-04T11:32:01.127Z,4.70
2022-10-04T11:34:57.926Z,4.50
2022-10-04T11:37:56.315Z,4.40
2022-10-04T11:41:10.752Z,4.03
2022-10-04T11:44:18.843Z,4.68
2022-10-04T11:46:53.284Z,5.80
2022-10-04T11:49:56.408Z,4.50
2022-10-04T11:53:03.843Z,3.78
2022-10-04T11:56:04.143Z,4.47
2022-10-04T11:58:54.615Z,3.83
2022-10-04T12:02:01.203Z,3.73
2022-10-04T12:04:38.422Z,4.00
2022-10-04T12:07:10.739Z,4.22
2022-10-04T12:09:40.289Z,4.30
2022-10-04T12:12:28.271Z,3.90
2022-10-04T12:15:30.444Z,4.40
2022-10-04T12:18:34.888Z,4.53
2022-10-04T12:21:29.026Z,4.28
2022-10-04T12:24:36.884Z,5.05
2022-10-04T12:27:34.807Z,4.57
2022-10-04T12:30:12.987Z,4.63
2022-10-04T12:32:47.529Z,4.10
2022-10-04T12:35:14.045Z,4.15
2022-10-04T12:38:09.330Z,3.85
2022-10-04T12:41:03.620Z,3.70
2022-10-04T12:43:49.427Z,3.83
2022-10-04T12:46:25.264Z,3.85
2022-10-04T12:49:10.851Z,4.20
2022-10-04T12:51:37.923Z,3.70
2022-10-04T12:54:36.326Z,3.90
2022-10-04T12:57:23.622Z,3.40
2022-10-04T12:59:57.754Z,3.88
2022-10-04T13:02:32.619Z,3.90
2022-10-04T13:05:20.488Z,3.83
2022-10-04T13:08:13.492Z,3.83
2022-10-04T13:11:02.420Z,3.53
2022-10-04T13:14:03.007Z,4.47
2022-10-04T13:20:01.312Z,4.10
2022-10-04T13:22:57.810Z,4.47
2022-10-04T13:25:30.252Z,4.57
2022-10-04T13:28:23.282Z,5.35
2022-10-04T13:31:00.591Z,4.35
2022-10-04T13:33:30.246Z,4.43
2022-10-04T13:36:09.085Z,4.57
2022-10-04T13:38:46.188Z,4.33
2022-10-04T13:41:22.069Z,4.90
2022-10-04T13:44:13.382Z,4.82
2022-10-04T13:47:04.614Z,4.50
2022-10-04T13:49:57.412Z,4.88
2022-10-04T13:53:07.195Z,4.23
2022-10-04T13:56:13.076Z,4.35
2022-10-04T13:58:55.407Z,4.30
2022-10-04T14:02:03.978Z,4.68
2022-10-04T14:04:49.288Z,4.18
2022-10-04T14:07:40.165Z,4.20
2022-10-04T14:10:52.265Z,4.13
2022-10-04T14:13:40.836Z,4.82
2022-10-04T14:16:40.206Z,4.43
2022-10-04T14:19:30.700Z,4.00
2022-10-04T14:22:19.048Z,4.17
2022-10-04T14:24:46.935Z,3.72
2022-10-04T14:27:40.534Z,4.13
2022-10-04T14:30:51.423Z,4.22
2022-10-04T14:33:45.660Z,4.20
2022-10-04T14:36:56.380Z,4.30
2022-10-04T14:39:59.661Z,3.78
2022-10-04T14:42:46.485Z,4.18
2022-10-04T14:45:54.868Z,4.28
2022-10-04T14:48:45.787Z,4.72
2022-10-04T14:51:44.508Z,4.57
2022-10-04T14:54:17.341Z,3.95
2022-10-04T14:57:03.388Z,4.05
2022-10-04T14:59:49.465Z,4.18
2022-10-04T15:02:34.273Z,4.05
2022-10-04T15:05:19.807Z,3.37
2022-10-04T15:08:14.788Z,4.22
2022-10-04T15:11:10.975Z,3.95
2022-10-04T15:13:51.498Z,4.00
2022-10-04T15:16:51.047Z,4.05
2022-10-04T15:19:20.718Z,4.37
2022-10-04T15:21:55.949Z,4.82
2022-10-04T15:24:27.516Z,4.43
2022-10-04T15:27:08.733Z,4.13
2022-10-04T15:30:20.517Z,4.07
2022-10-04T15:33:07.339Z,4.40
2022-10-04T15:36:14.039Z,3.97
2022-10-04T15:39:01.793Z,4.03
2022-10-04T15:42:02.465Z,4.03
2022-10-04T15:44:59.121Z,4.53
2022-10-04T15:47:47.789Z,3.50
2022-10-04T15:50:23.465Z,4.13
2022-10-04T15:53:27.820Z,4.10
2022-10-04T15:56:09.777Z,4.00
2022-10-04T15:59:04.059Z,3.92
2022-10-04T16:01:40.313Z,3.90
2022-10-04T16:04:25.332Z,4.15
2022-10-04T16:06:58.774Z,4.32
2022-10-04T16:09:53.431Z,4.22
2022-10-04T16:12:20.478Z,4.10
2022-10-04T16:15:20.667Z,3.80
2022-10-04T16:17:53.501Z,3.72
2022-10-04T16:20:27.786Z,4.00
2022-10-04T16:23:27.783Z,3.83
2022-10-04T16:25:57.087Z,3.88
2022-10-04T16:28:43.879Z,3.63
2022-10-04T16:31:38.323Z,4.10
2022-10-04T16:34:17.110Z,4.07
2022-10-04T16:36:54.000Z,3.88
2022-10-04T16:39:52.564Z,3.55
2022-10-04T16:42:27.961Z,3.57
2022-10-04T16:45:20.251Z,3.72
2022-10-04T16:47:59.894Z,4.07
2022-10-04T16:51:00.588Z,3.50
2022-10-04T16:53:54.385Z,3.95
2022-10-04T16:56:27.186Z,3.77
2022-10-04T16:58:57.532Z,3.50
2022-10-04T17:01:33.970Z,3.88
2022-10-04T17:04:28.337Z,4.65
2022-10-04T17:07:12.985Z,4.20
2022-10-04T17:09:47.668Z,3.80
2022-10-04T17:12:35.593Z,4.55
2022-10-04T17:15:14.301Z,4.72
2022-10-04T17:17:49.212Z,3.83
2022-10-04T17:20:56.756Z,3.90
2022-10-04T17:23:48.428Z,3.67
2022-10-04T17:26:50.835Z,3.72
2022-10-04T17:29:24.163Z,3.92
2022-10-04T17:32:28.391Z,3.78
2022-10-04T17:35:36.223Z,3.70
2022-10-04T17:38:09.439Z,3.80
2022-10-04T17:41:08.470Z,3.72
2022-10-04T17:44:20.418Z,4.25
2022-10-04T17:47:14.302Z,4.00
2022-10-04T17:50:20.935Z,4.00
2022-10-04T17:53:23.064Z,4.10
2022-10-04T17:55:58.531Z,4.55
2022-10-04T17:58:51.155Z,3.38
2022-10-04T18:01:28.756Z,4.20
2022-10-04T18:04:06.476Z,3.63
2022-10-04T18:06:49.613Z,4.07
2022-10-04T18:09:35.640Z,3.53
2022-10-04T18:12:11.791Z,4.20
2022-10-04T18:14:49.972Z,4.05
2022-10-04T18:18:04.598Z,3.85
2022-10-04T18:20:37.168Z,3.70
2022-10-04T18:23:27.266Z,3.60
2022-10-04T18:26:18.164Z,4.28
2022-10-04T18:28:46.140Z,3.80
2022-10-04T18:31:38.350Z,3.90
2022-10-04T18:34:10.933Z,4.17
2022-10-04T18:36:57.831Z,4.40
2022-10-04T18:39:24.773Z,4.38
2022-10-04T18:42:16.734Z,3.90
2022-10-04T18:45:01.156Z,4.50
2022-10-04T18:47:40.274Z,4.17
2022-10-04T18:50:24.132Z,4.70
2022-10-04T18:53:21.347Z,4.25
2022-10-04T18:55:50.683Z,4.10
2022-10-04T18:59:26.865Z,4.03
2022-10-04T19:02:15.930Z,4.07
2022-10-04T19:05:04.831Z,4.22
2022-10-04T19:07:31.355Z,4.53
2022-10-04T19:10:09.788Z,4.45
2022-10-04T19:13:15.021Z,4.40
2022-10-04T19:16:06.490Z,4.57
2022-10-04T19:22:21.021Z,4.13
2022-10-04T19:28:22.222Z,4.25
2022-10-04T19:34:28.445Z,4.00
2022-10-04T20:40:32.137Z,4.22
2022-10-04T20:44:20.956Z,4.27
2022-10-04T21:59:18.627Z,5.82
2022-10-04T22:04:41.096Z,5.38
2022-10-04T22:07:08.916Z,5.68
2022-10-04T22:09:42.289Z,5.93
2022-10-04T22:25:23.008Z,6.17
2022-10-04T22:34:06.291Z,6.20
2022-10-04T22:37:07.017Z,6.30
2022-10-04T22:39:48.588Z,6.03
2022-10-04T22:46:27.389Z,6.50
2022-10-04T22:48:57.018Z,5.97
2022-10-04T23:01:25.280Z,6.22
2022-10-04T23:04:59.342Z,6.60
2022-10-04T23:10:56.859Z,5.83
2022-10-04T23:20:29.423Z,7.03
2022-10-04T23:23:17.287Z,6.68
2022-10-04T23:25:46.948Z,6.33
2022-10-04T23:28:15.870Z,6.47
2022-10-04T23:30:43.971Z,6.90
2022-10-04T23:37:27.165Z,7.57
2022-10-04T23:39:53.980Z,6.83
2022-10-04T23:42:28.818Z,6.53
2022-10-04T23:44:57.472Z,6.82
2022-10-04T23:47:34.279Z,7.18
2022-10-04T23:50:01.486Z,6.82
2022-10-04T23:52:39.618Z,6.60
2022-10-04T23:55:21.241Z,6.22
2022-10-04T23:57:48.162Z,6.50
